Time;durP1;ratioP1;P1;durP2;ratioP2;P2;SDS_P1;SDS_P2;PMS_P1;PMS_P2;Temp;Humidity;BMP_temperature;BMP_pressure;BME280_temperature;BME280_humidity;BME280_pressure;Samples;Min_cycle;Max_cycle;Signal;HPM_P1;HPM_P2
2023/05/20 00:02:09;;;;;;;13.50;7.72;;;;;;;12.30;73.63;94241.44;5024389;28;20030;-78
2023/05/20 00:04:34;;;;;;;20.92;8.20;;;;;;;12.31;73.76;94237.66;5024642;28;20025;-77
2023/05/20 00:07:00;;;;;;;17.40;9.57;;;;;;;12.27;73.83;94241.28;5024478;28;20277;-77
2023/05/20 00:09:25;;;;;;;19.75;7.20;;;;;;;12.27;73.69;94239.38;5024328;28;20037;-78
2023/05/20 00:11:51;;;;;;;10.77;5.95;;;;;;;12.24;73.58;94242.69;5023950;28;20248;-78
2023/05/20 00:14:16;;;;;;;11.27;6.25;;;;;;;12.21;73.66;94246.78;5023926;28;20100;-78
2023/05/20 00:16:42;;;;;;;10.68;6.10;;;;;;;12.18;73.58;94252.75;5024171;28;20022;-78
2023/05/20 00:19:07;;;;;;;11.38;6.05;;;;;;;12.20;73.10;94237.19;5024109;28;20030;-78
2023/05/20 00:21:33;;;;;;;11.30;5.93;;;;;;;12.19;72.30;94240.16;5024076;28;20029;-78
2023/05/20 00:23:58;;;;;;;10.38;6.18;;;;;;;12.17;72.53;94235.16;5024375;28;20069;-78
2023/05/20 00:26:25;;;;;;;11.38;7.05;;;;;;;12.19;72.83;94250.84;5024062;28;20021;-78
2023/05/20 00:28:50;;;;;;;19.10;7.40;;;;;;;12.18;73.26;94243.94;5024152;28;20068;-78
2023/05/20 00:31:16;;;;;;;12.68;6.18;;;;;;;12.14;73.58;94249.13;5023980;28;20115;-78
2023/05/20 00:33:41;;;;;;;10.65;5.07;;;;;;;12.11;73.07;94248.97;5023876;28;20231;-78
2023/05/20 00:36:07;;;;;;;13.02;5.40;;;;;;;12.11;73.22;94238.28;5023986;28;20086;-78
2023/05/20 00:38:33;;;;;;;14.18;6.32;;;;;;;12.09;73.11;94238.59;5023855;28;20085;-78
2023/05/20 00:40:58;;;;;;;12.07;6.28;;;;;;;12.09;73.29;94225.25;5006360;28;20017;-79
2023/05/20 00:43:25;;;;;;;14.15;6.35;;;;;;;12.09;73.59;94227.09;5023753;28;20029;-78
2023/05/20 00:45:52;;;;;;;10.20;6.60;;;;;;;12.06;73.78;94225.84;5023600;28;20032;-78
2023/05/20 00:48:18;;;;;;;16.27;7.00;;;;;;;12.00;74.18;94216.44;5023840;28;20247;-79
2023/05/20 00:50:43;;;;;;;11.45;7.13;;;;;;;11.99;74.24;94221.00;5023303;28;20045;-79
2023/05/20 00:53:09;;;;;;;16.52;6.80;;;;;;;11.94;74.54;94212.34;5023750;28;20316;-77
2023/05/20 00:55:34;;;;;;;15.60;6.65;;;;;;;11.93;74.61;94210.78;5023585;28;20089;-78
2023/05/20 00:58:00;;;;;;;12.95;6.78;;;;;;;11.91;74.70;94202.28;5023345;28;20140;-77
2023/05/20 01:00:25;;;;;;;13.48;5.82;;;;;;;11.78;75.05;94211.97;5023197;28;20041;-77
2023/05/20 01:02:51;;;;;;;19.45;6.57;;;;;;;11.74;75.39;94198.44;5005852;28;20049;-77
2023/05/20 01:05:17;;;;;;;12.70;6.07;;;;;;;11.75;75.45;94194.69;5005609;28;20033;-78
2023/05/20 01:07:42;;;;;;;18.75;6.40;;;;;;;11.76;75.58;94203.47;5023179;28;20029;-78
2023/05/20 01:10:08;;;;;;;13.32;6.07;;;;;;;11.82;75.70;94203.03;5023120;28;20315;-78
2023/05/20 01:12:49;;;;;;;10.60;6.25;;;;;;;11.90;75.81;94206.03;5023356;28;20110;-78
2023/05/20 01:15:16;;;;;;;15.98;6.30;;;;;;;11.91;75.66;94207.63;5023261;28;20022;-78
2023/05/20 01:17:49;;;;;;;10.73;5.90;;;;;;;11.94;75.50;94215.78;5023296;28;20068;-78
2023/05/20 01:20:15;;;;;;;11.57;6.78;;;;;;;11.97;75.30;94212.50;5005600;28;20030;-78
2023/05/20 01:22:48;;;;;;;16.42;6.45;;;;;;;12.03;75.14;94226.50;5023104;28;20103;-78
2023/05/20 01:25:13;;;;;;;9.95;5.93;;;;;;;12.07;74.98;94231.97;5023067;28;20312;-78
2023/05/20 01:27:39;;;;;;;13.82;6.07;;;;;;;12.03;74.85;94235.28;5023006;28;20021;-78
2023/05/20 01:30:05;;;;;;;15.02;6.85;;;;;;;12.03;75.08;94226.50;5023102;28;20335;-78
2023/05/20 01:32:36;;;;;;;9.18;5.88;;;;;;;12.02;75.12;94224.91;5023247;28;20060;-78
2023/05/20 01:35:02;;;;;;;16.90;6.57;;;;;;;12.00;75.41;94222.53;5023023;28;20348;-78
2023/05/20 01:37:29;;;;;;;12.63;6.65;;;;;;;11.96;75.60;94226.16;5023009;28;20053;-78
2023/05/20 01:39:55;;;;;;;11.75;6.60;;;;;;;11.95;75.64;94219.25;5023104;28;20062;-78
2023/05/20 01:42:22;;;;;;;13.30;6.93;;;;;;;11.95;75.76;94216.59;5023013;28;20088;-78
2023/05/20 01:44:48;;;;;;;11.65;6.28;;;;;;;11.93;75.91;94210.78;5022802;28;20029;-77
2023/05/20 01:47:13;;;;;;;14.63;6.93;;;;;;;11.90;76.05;94206.03;5022741;28;20036;-78
2023/05/20 01:49:39;;;;;;;12.93;6.72;;;;;;;11.90;76.21;94200.69;5022698;28;20248;-78
2023/05/20 01:52:04;;;;;;;9.65;6.10;;;;;;;11.91;76.14;94202.28;5023174;28;20033;-78
2023/05/20 01:54:30;;;;;;;19.75;6.30;;;;;;;11.93;76.00;94200.09;5022699;28;20048;-78
2023/05/20 01:56:55;;;;;;;10.27;6.70;;;;;;;11.93;75.98;94205.44;5022259;28;20042;-79
2023/05/20 01:59:21;;;;;;;13.07;5.95;;;;;;;11.96;75.67;94204.78;5022813;28;20092;-80
2023/05/20 02:01:46;;;;;;;11.25;6.03;;;;;;;11.96;75.75;94207.47;5024468;28;20030;-79
2023/05/20 02:04:12;;;;;;;10.65;6.60;;;;;;;11.94;75.80;94207.00;5026955;28;20223;-79
2023/05/20 02:06:37;;;;;;;10.98;6.18;;;;;;;11.92;75.71;94201.19;5026750;28;20300;-79
2023/05/20 02:09:04;;;;;;;11.35;6.22;;;;;;;11.87;75.82;94201.31;5026854;28;20052;-79
2023/05/20 02:11:29;;;;;;;10.10;6.43;;;;;;;11.78;75.88;94194.03;5026605;28;20029;-79
2023/05/20 02:13:55;;;;;;;12.65;6.97;;;;;;;11.74;76.07;94193.09;5026496;28;20057;-79
2023/05/20 02:16:21;;;;;;;14.38;6.65;;;;;;;11.69;76.16;94195.16;5026419;28;20026;-79
2023/05/20 02:18:46;;;;;;;13.38;6.03;;;;;;;11.67;76.38;94203.47;5026473;28;20312;-79
2023/05/20 02:21:11;;;;;;;13.07;5.93;;;;;;;11.63;76.44;94202.50;5008969;28;20025;-78
2023/05/20 02:23:37;;;;;;;10.63;6.03;;;;;;;11.60;76.48;94208.47;5026381;28;20025;-78
2023/05/20 02:26:02;;;;;;;10.23;5.95;;;;;;;11.58;76.56;94199.97;5026431;28;20065;-79
2023/05/20 02:28:28;;;;;;;13.93;7.28;;;;;;;11.56;76.63;94202.97;5026479;28;20085;-79
2023/05/20 02:30:53;;;;;;;17.23;8.50;;;;;;;11.54;76.57;94204.34;5026939;28;20060;-78
2023/05/20 02:33:19;;;;;;;18.27;9.05;;;;;;;11.50;76.62;94193.53;5026448;28;20153;-79
2023/05/20 02:35:45;;;;;;;26.05;11.55;;;;;;;11.47;76.87;94198.69;5008581;28;20057;-79
2023/05/20 02:38:11;;;;;;;26.17;10.82;;;;;;;11.46;76.82;94192.59;5025925;28;20064;-78
2023/05/20 02:40:37;;;;;;;19.77;10.25;;;;;;;11.42;76.99;94197.75;5026208;28;20220;-79
2023/05/20 02:43:05;;;;;;;18.50;8.90;;;;;;;11.42;77.13;94197.75;5026087;28;20026;-79
2023/05/20 02:45:30;;;;;;;18.30;8.07;;;;;;;11.38;77.23;94190.69;5025982;28;20209;-79
2023/05/20 02:47:56;;;;;;;15.15;7.90;;;;;;;11.39;77.31;94192.22;5026076;28;20052;-79
2023/05/20 02:50:21;;;;;;;14.82;7.60;;;;;;;11.36;77.36;94198.22;5025955;28;20312;-79
2023/05/20 02:52:47;;;;;;;15.65;7.78;;;;;;;11.35;77.52;94197.41;5026203;28;20022;-78
2023/05/20 02:55:13;;;;;;;12.50;7.97;;;;;;;11.36;77.40;94193.66;5026086;28;20025;-79
2023/05/20 02:57:39;;;;;;;16.38;8.13;;;;;;;11.33;77.43;94191.59;5025725;28;20089;-78
2023/05/20 03:00:06;;;;;;;17.33;7.50;;;;;;;11.33;77.20;94190.81;5025857;28;20064;-79
2023/05/20 03:02:32;;;;;;;10.57;6.43;;;;;;;11.29;76.81;94195.19;5025976;28;20086;-78
2023/05/20 03:04:58;;;;;;;18.48;6.93;;;;;;;11.28;76.56;94197.06;5025790;28;20025;-79
2023/05/20 03:07:26;;;;;;;11.50;6.00;;;;;;;11.29;76.23;94198.63;5025349;28;20461;-77
2023/05/20 03:09:52;;;;;;;14.73;6.60;;;;;;;11.28;76.11;94206.97;5025540;28;20228;-79
2023/05/20 03:12:18;;;;;;;10.48;6.20;;;;;;;11.25;76.12;94205.69;5024889;28;20097;-79
2023/05/20 03:14:43;;;;;;;11.80;6.57;;;;;;;11.25;76.22;94197.69;5025650;28;20079;-79
2023/05/20 03:17:10;;;;;;;12.52;6.03;;;;;;;11.26;76.01;94201.16;5025534;28;20037;-79
2023/05/20 03:19:36;;;;;;;14.93;7.72;;;;;;;11.31;76.11;94209.78;5025460;28;20026;-79
2023/05/20 03:22:01;;;;;;;14.68;6.97;;;;;;;11.31;76.23;94207.13;5025504;28;20079;-78
2023/05/20 03:24:28;;;;;;;19.63;6.88;;;;;;;11.33;76.37;94209.47;5025466;28;20040;-79
2023/05/20 03:26:53;;;;;;;18.83;6.93;;;;;;;11.34;76.07;94216.41;5025314;28;20173;-78
2023/05/20 03:29:20;;;;;;;8.80;5.70;;;;;;;11.34;76.09;94221.75;5025392;28;20030;-79
2023/05/20 03:31:45;;;;;;;15.80;7.35;;;;;;;11.40;76.05;94223.97;5025113;28;20084;-78
2023/05/20 03:34:10;;;;;;;19.17;5.85;;;;;;;11.45;75.81;94223.81;5025306;28;20111;-77
2023/05/20 03:36:36;;;;;;;13.38;6.30;;;;;;;11.48;75.73;94219.75;5025295;28;20032;-78
2023/05/20 03:39:03;;;;;;;10.50;6.15;;;;;;;11.56;75.43;94229.66;5025244;28;20092;-78
2023/05/20 03:41:28;;;;;;;12.15;6.28;;;;;;;11.62;75.11;94223.09;5025302;28;20018;-80
2023/05/20 03:43:54;;;;;;;10.32;5.65;;;;;;;11.69;74.77;94222.63;5025332;28;20048;-79
2023/05/20 03:46:19;;;;;;;13.55;6.28;;;;;;;11.76;74.65;94227.50;5024750;28;20261;-79
2023/05/20 03:48:45;;;;;;;15.00;6.50;;;;;;;11.84;74.86;94226.72;5024942;28;20022;-79
2023/05/20 03:51:10;;;;;;;13.00;5.22;;;;;;;11.93;74.78;94224.91;5024857;28;20033;-78
2023/05/20 03:53:35;;;;;;;11.60;7.38;;;;;;;12.02;74.85;94231.03;5024800;28;20040;-77
2023/05/20 03:56:01;;;;;;;9.98;6.38;;;;;;;12.13;74.54;94236.06;5024418;28;20215;-80
2023/05/20 03:58:28;;;;;;;14.60;6.90;;;;;;;12.19;74.57;94234.81;5024645;28;20041;-80
2023/05/20 04:00:54;;;;;;;17.45;6.78;;;;;;;12.30;74.24;94228.06;5024698;28;20088;-80
2023/05/20 04:03:21;;;;;;;16.17;6.75;;;;;;;12.37;74.11;94238.28;5024772;28;20079;-80
2023/05/20 04:05:47;;;;;;;14.60;6.72;;;;;;;12.45;73.99;94232.16;5024675;28;20029;-80
2023/05/20 04:08:12;;;;;;;16.98;6.78;;;;;;;12.58;73.46;94238.47;5024676;28;20055;-78
2023/05/20 04:10:41;;;;;;;13.70;7.57;;;;;;;12.68;73.57;94245.34;5024957;28;20013;-78
2023/05/20 04:13:06;;;;;;;15.55;6.93;;;;;;;12.78;73.30;94247.69;5024562;28;20081;-78
2023/05/20 04:15:35;;;;;;;14.77;6.70;;;;;;;12.87;72.93;94237.00;5024629;28;20021;-78
2023/05/20 04:18:00;;;;;;;12.55;7.10;;;;;;;12.97;72.35;94244.69;5024166;28;20045;-78
2023/05/20 04:20:26;;;;;;;15.25;8.05;;;;;;;13.07;72.09;94246.22;5024534;28;20259;-79
2023/05/20 04:22:52;;;;;;;18.05;7.38;;;;;;;13.14;71.99;94247.31;5024241;28;20041;-79
2023/05/20 04:25:18;;;;;;;21.52;8.35;;;;;;;13.20;72.04;94253.28;5023494;28;20055;-80
2023/05/20 04:27:44;;;;;;;16.27;9.07;;;;;;;13.27;71.49;94242.88;5024256;28;20013;-79
2023/05/20 04:30:10;;;;;;;14.23;7.57;;;;;;;13.34;70.70;94261.94;5023963;28;20021;-79
2023/05/20 04:32:36;;;;;;;24.77;8.38;;;;;;;13.40;70.72;94243.81;5023743;28;20094;-78
2023/05/20 04:35:01;;;;;;;13.25;7.20;;;;;;;13.42;70.88;94242.38;5023549;28;20064;-79
2023/05/20 04:37:27;;;;;;;17.42;7.90;;;;;;;13.47;71.17;94237.94;5006360;28;20029;-80
2023/05/20 04:39:53;;;;;;;17.33;7.00;;;;;;;13.48;71.15;94239.53;5024107;28;20041;-79
2023/05/20 04:42:20;;;;;;;18.63;8.07;;;;;;;13.46;71.35;94239.06;5023809;28;20018;-80
2023/05/20 04:44:47;;;;;;;15.05;7.75;;;;;;;13.52;71.58;94246.59;5023750;28;20227;-80
2023/05/20 04:47:13;;;;;;;17.63;8.88;;;;;;;13.53;71.81;94252.72;5023715;28;20024;-80
2023/05/20 04:49:38;;;;;;;19.67;8.43;;;;;;;13.51;72.29;94255.72;5024363;28;20022;-78
2023/05/20 04:52:04;;;;;;;16.30;9.48;;;;;;;13.54;72.58;94257.78;5024390;28;20213;-78
2023/05/20 04:54:31;;;;;;;21.80;8.80;;;;;;;13.59;72.94;94262.16;5023979;28;20021;-78
2023/05/20 04:56:57;;;;;;;17.35;8.05;;;;;;;13.62;72.44;94264.97;5023620;28;20072;-79
2023/05/20 04:59:23;;;;;;;26.38;9.48;;;;;;;13.69;72.51;94264.47;5023700;28;20026;-78
2023/05/20 05:01:48;;;;;;;16.52;8.32;;;;;;;13.73;72.55;94262.72;5023763;28;20068;-77
2023/05/20 05:04:14;;;;;;;17.00;9.07;;;;;;;13.79;71.93;94264.09;5023594;28;20026;-77
2023/05/20 05:06:39;;;;;;;21.40;8.15;;;;;;;13.88;71.87;94257.91;5023721;28;20029;-78
2023/05/20 05:09:06;;;;;;;16.83;8.20;;;;;;;13.95;71.62;94261.66;5023820;28;20022;-77
2023/05/20 05:11:32;;;;;;;19.17;8.32;;;;;;;14.06;71.65;94262.06;5023555;28;20248;-78
2023/05/20 05:13:57;;;;;;;19.67;8.82;;;;;;;14.17;71.42;94260.59;5005941;28;20022;-78
2023/05/20 05:16:23;;;;;;;15.82;9.20;;;;;;;14.28;71.34;94262.88;5023647;28;20091;-77
2023/05/20 05:18:48;;;;;;;14.82;8.82;;;;;;;14.38;70.95;94252.53;5023449;28;20236;-77
2023/05/20 05:21:13;;;;;;;20.85;8.65;;;;;;;14.53;70.41;94267.28;5023391;28;20021;-78
2023/05/20 05:23:41;;;;;;;18.08;8.18;;;;;;;14.63;70.08;94261.56;5023557;28;20022;-79
2023/05/20 05:26:06;;;;;;;16.23;8.27;;;;;;;14.75;69.11;94254.66;5023671;28;20400;-80
2023/05/20 05:28:32;;;;;;;24.23;8.05;;;;;;;14.90;68.17;94254.06;5023737;28;20022;-79
2023/05/20 05:30:57;;;;;;;19.52;9.07;;;;;;;15.01;68.15;94252.50;5023322;28;20029;-80
2023/05/20 05:33:23;;;;;;;17.10;7.40;;;;;;;15.15;66.95;94251.44;5023734;28;20255;-80
2023/05/20 05:35:49;;;;;;;15.15;7.32;;;;;;;15.27;65.99;94246.09;5023335;28;20046;-79
2023/05/20 05:38:15;;;;;;;13.13;6.93;;;;;;;15.37;65.54;94239.50;5023073;28;20320;-80
2023/05/20 05:40:40;;;;;;;17.60;7.25;;;;;;;15.48;64.54;94242.53;5023566;28;20047;-81
2023/05/20 05:43:05;;;;;;;15.45;7.53;;;;;;;15.52;65.52;94241.53;5023642;28;20048;-80
2023/05/20 05:45:31;;;;;;;19.00;8.35;;;;;;;15.65;67.25;94239.63;5023146;28;20029;-79
2023/05/20 05:47:56;;;;;;;16.85;7.57;;;;;;;15.73;66.72;94236.06;5023173;28;20140;-79
2023/05/20 05:50:22;;;;;;;18.65;7.97;;;;;;;15.86;66.78;94249.53;5023515;28;20097;-79
2023/05/20 05:52:47;;;;;;;19.23;7.35;;;;;;;15.93;66.31;94245.16;5023156;28;20025;-78
2023/05/20 05:55:12;;;;;;;15.27;8.35;;;;;;;16.00;66.46;94242.69;5023035;28;20029;-78
2023/05/20 05:57:38;;;;;;;18.90;8.00;;;;;;;16.11;66.45;94234.16;5023092;28;20025;-77
2023/05/20 06:00:04;;;;;;;12.60;6.28;;;;;;;16.24;65.32;94233.81;5023056;28;20088;-77
2023/05/20 06:02:34;;;;;;;14.95;6.75;;;;;;;16.39;61.80;94245.75;5023007;28;20029;-77
2023/05/20 06:05:03;;;;;;;19.30;7.35;;;;;;;16.50;61.92;94235.31;5023082;28;20025;-78
2023/05/20 06:07:28;;;;;;;26.15;7.22;;;;;;;16.60;62.34;94240.19;5022876;28;20094;-78
2023/05/20 06:09:54;;;;;;;22.65;7.38;;;;;;;16.71;63.91;94227.06;5022927;28;20021;-78
2023/05/20 06:12:20;;;;;;;11.00;6.65;;;;;;;16.76;60.88;94236.78;5022921;28;20029;-77
2023/05/20 06:14:46;;;;;;;10.48;6.07;;;;;;;16.91;60.64;94227.22;5022768;28;20025;-79
2023/05/20 06:17:12;;;;;;;15.02;6.78;;;;;;;17.02;59.31;94233.69;5022788;28;20093;-78
2023/05/20 06:19:37;;;;;;;20.65;5.75;;;;;;;17.14;59.52;94230.16;5022471;28;20026;-79
2023/05/20 06:22:03;;;;;;;9.13;5.13;;;;;;;17.27;56.48;94228.94;5022993;28;20021;-80
2023/05/20 06:24:28;;;;;;;18.15;6.85;;;;;;;17.37;56.63;94227.66;5022875;28;20061;-79
2023/05/20 06:26:54;;;;;;;13.68;6.00;;;;;;;17.47;56.53;94229.06;5022741;28;20068;-78
2023/05/20 06:29:19;;;;;;;9.15;5.60;;;;;;;17.58;55.89;94228.16;5022592;28;20041;-78
2023/05/20 06:31:45;;;;;;;12.25;5.47;;;;;;;17.66;54.53;94218.34;5022789;28;20030;-79
2023/05/20 06:34:10;;;;;;;10.40;5.60;;;;;;;17.77;55.19;94219.38;5022780;28;20316;-80
2023/05/20 06:36:36;;;;;;;12.15;5.65;;;;;;;17.88;53.76;94214.25;5022359;28;20029;-78
2023/05/20 06:39:02;;;;;;;13.07;5.00;;;;;;;17.97;53.28;94212.16;5022496;28;20025;-76
2023/05/20 06:41:27;;;;;;;10.02;4.95;;;;;;;18.09;54.53;94208.56;5022642;28;20026;-76
2023/05/20 06:43:53;;;;;;;19.23;5.45;;;;;;;18.18;53.18;94208.38;5022529;28;20034;-78
2023/05/20 06:46:18;;;;;;;10.30;5.22;;;;;;;18.21;53.39;94200.34;5022444;28;20205;-79
2023/05/20 06:48:43;;;;;;;11.35;5.13;;;;;;;18.29;51.58;94200.50;5024599;28;20022;-80
2023/05/20 06:51:09;;;;;;;10.45;4.75;;;;;;;18.37;51.76;94203.00;5025114;28;20026;-78
2023/05/20 06:53:35;;;;;;;9.70;5.50;;;;;;;18.41;52.73;94201.16;5024351;28;20049;-80
2023/05/20 06:56:01;;;;;;;19.52;5.80;;;;;;;18.48;51.69;94208.63;5024242;28;20026;-80
2023/05/20 06:58:27;;;;;;;13.77;6.22;;;;;;;18.54;52.11;94207.22;5024828;28;20030;-80
2023/05/20 07:00:52;;;;;;;14.77;5.65;;;;;;;18.64;53.29;94208.53;5025107;28;20024;-80
2023/05/20 07:03:18;;;;;;;14.63;5.47;;;;;;;18.71;51.91;94208.69;5023814;28;20096;-79
2023/05/20 07:05:43;;;;;;;11.00;5.20;;;;;;;18.80;51.56;94219.31;5024002;28;20022;-79
2023/05/20 07:08:09;;;;;;;10.93;5.70;;;;;;;18.85;50.47;94205.53;5023744;28;20320;-80
2023/05/20 07:10:34;;;;;;;10.07;5.20;;;;;;;18.92;49.93;94207.56;5024239;28;20312;-80
2023/05/20 07:13:00;;;;;;;15.48;5.25;;;;;;;19.00;49.76;94196.53;5023718;28;20014;-80
2023/05/20 07:15:26;;;;;;;11.40;5.40;;;;;;;19.07;49.34;94203.22;5023796;28;20104;-79
2023/05/20 07:17:52;;;;;;;8.75;5.15;;;;;;;19.13;49.59;94204.47;5025289;28;20093;-80
2023/05/20 07:20:17;;;;;;;12.25;5.78;;;;;;;19.20;49.89;94205.38;5024755;28;20029;-80
2023/05/20 07:22:47;;;;;;;18.58;5.80;;;;;;;19.23;50.06;94204.69;5025614;28;20026;-80
2023/05/20 07:25:13;;;;;;;15.68;6.43;;;;;;;19.27;49.35;94193.91;5025337;28;20068;-80
2023/05/20 07:27:38;;;;;;;14.80;5.72;;;;;;;19.36;48.68;94199.88;5025406;28;20041;-80
2023/05/20 07:30:04;;;;;;;8.40;5.18;;;;;;;19.47;48.84;94196.56;5025650;28;20022;-80
2023/05/20 07:32:30;;;;;;;10.18;5.35;;;;;;;19.50;48.07;94202.03;5025169;28;20037;-80
2023/05/20 07:34:55;;;;;;;13.30;5.97;;;;;;;19.49;48.76;94199.69;5025128;28;20077;-79
2023/05/20 07:37:23;;;;;;;10.13;5.43;;;;;;;19.54;47.55;94196.69;5025489;28;20316;-80
2023/05/20 07:39:49;;;;;;;10.80;4.95;;;;;;;19.59;46.37;94199.09;5025243;28;20038;-80
2023/05/20 07:42:15;;;;;;;12.30;5.28;;;;;;;19.63;47.43;94208.03;5025107;28;20029;-80
2023/05/20 07:44:40;;;;;;;9.43;5.28;;;;;;;19.68;48.07;94209.66;5024955;28;20026;-80
2023/05/20 07:47:06;;;;;;;15.65;5.45;;;;;;;19.74;46.08;94206.31;5025134;28;20022;-80
2023/05/20 07:49:31;;;;;;;15.90;5.60;;;;;;;19.80;46.83;94198.66;5024815;28;20028;-80
2023/05/20 07:51:57;;;;;;;12.35;6.10;;;;;;;19.85;47.84;94209.19;5024965;28;20018;-81
2023/05/20 07:54:22;;;;;;;9.73;6.15;;;;;;;19.92;47.16;94195.75;5024990;28;20093;-80
2023/05/20 07:56:48;;;;;;;13.13;5.65;;;;;;;19.99;46.87;94206.69;5024655;28;20336;-81
2023/05/20 07:59:13;;;;;;;16.05;6.85;;;;;;;20.07;47.28;94199.47;5024192;28;20030;-81
2023/05/20 08:01:40;;;;;;;12.23;5.65;;;;;;;20.17;46.02;94198.03;5025207;28;20029;-80
2023/05/20 08:04:06;;;;;;;15.65;7.13;;;;;;;20.27;44.65;94199.34;5025327;28;20018;-81
2023/05/20 08:06:31;;;;;;;17.17;8.10;;;;;;;20.27;44.58;94200.09;5025521;28;20014;-82
2023/05/20 08:08:57;;;;;;;7.70;5.10;;;;;;;19.99;43.70;94190.47;5025002;28;20041;-81
2023/05/20 08:11:23;;;;;;;18.63;6.00;;;;;;;20.00;45.64;94196.66;5025174;28;20084;-82
2023/05/20 08:13:48;;;;;;;9.95;5.97;;;;;;;20.10;46.95;94189.84;5024712;28;20107;-81
2023/05/20 08:16:14;;;;;;;13.68;6.00;;;;;;;20.18;47.86;94188.78;5024649;28;20018;-81
2023/05/20 08:18:40;;;;;;;17.48;7.57;;;;;;;20.30;46.19;94193.19;5025181;28;20316;-81
2023/05/20 08:21:08;;;;;;;19.35;8.65;;;;;;;20.34;46.47;94189.38;5024715;28;20093;-81
2023/05/20 08:23:35;;;;;;;11.45;5.70;;;;;;;20.43;47.04;94191.81;5007511;28;20339;-81
2023/05/20 08:26:02;;;;;;;14.65;5.47;;;;;;;20.46;45.56;94188.38;5025127;28;20062;-81
2023/05/20 08:28:28;;;;;;;14.68;6.07;;;;;;;20.50;45.09;94183.78;5024882;28;20048;-81
2023/05/20 08:30:53;;;;;;;11.70;5.88;;;;;;;20.55;45.47;94183.47;5024659;28;20207;-80
2023/05/20 08:33:20;;;;;;;10.50;5.80;;;;;;;20.68;46.69;94183.25;5024699;28;20037;-81
2023/05/20 08:35:49;;;;;;;9.75;6.45;;;;;;;20.61;45.04;94179.31;5024457;28;20092;-81
2023/05/20 08:38:15;;;;;;;14.25;5.68;;;;;;;20.54;44.83;94187.31;5022999;28;20104;-81
2023/05/20 08:40:40;;;;;;;9.80;5.50;;;;;;;20.51;43.69;94179.91;5024548;28;20025;-81
2023/05/20 08:43:06;;;;;;;12.82;6.18;;;;;;;20.57;44.81;94178.44;5024711;28;20022;-80
2023/05/20 08:45:33;;;;;;;11.40;5.38;;;;;;;20.66;43.50;94182.84;5024239;28;20021;-79
2023/05/20 08:48:00;;;;;;;13.05;5.80;;;;;;;20.77;44.87;94183.75;5024243;28;20097;-80
2023/05/20 08:50:26;;;;;;;12.80;6.65;;;;;;;20.87;42.66;94176.91;5024137;28;20030;-80
2023/05/20 08:52:52;;;;;;;10.57;5.70;;;;;;;20.87;42.53;94180.38;5023893;28;20028;-80
2023/05/20 08:55:25;;;;;;;13.15;5.38;;;;;;;20.93;42.38;94180.84;5024130;28;20026;-82
2023/05/20 08:57:53;;;;;;;18.60;6.50;;;;;;;20.94;42.05;94185.09;5024181;28;20033;-80
2023/05/20 09:00:22;;;;;;;9.98;5.20;;;;;;;20.95;42.56;94182.00;5023763;28;20026;-80
2023/05/20 09:02:48;;;;;;;16.50;5.57;;;;;;;20.98;41.89;94183.97;5023649;28;20038;-80
2023/05/20 09:05:13;;;;;;;11.13;5.22;;;;;;;21.01;43.08;94172.41;5023532;28;20356;-80
2023/05/20 09:07:41;;;;;;;8.60;5.38;;;;;;;21.01;42.66;94175.09;5005878;28;20120;-80
2023/05/20 09:10:08;;;;;;;15.52;5.68;;;;;;;20.87;42.23;94156.00;5023275;28;20189;-78
2023/05/20 09:12:36;;;;;;;18.58;5.57;;;;;;;20.91;42.61;94167.66;5023534;28;20093;-79
2023/05/20 09:15:02;;;;;;;22.13;5.97;;;;;;;21.02;42.79;94165.03;5023394;28;20185;-79
2023/05/20 09:17:27;;;;;;;12.98;5.53;;;;;;;21.17;41.90;94163.28;5023304;28;20355;-78
2023/05/20 09:19:53;;;;;;;10.10;5.20;;;;;;;21.26;41.79;94157.53;5023587;28;20036;-80
2023/05/20 09:22:22;;;;;;;8.32;4.80;;;;;;;21.32;41.33;94158.75;5023326;28;20021;-79
2023/05/20 09:24:49;;;;;;;25.65;6.95;;;;;;;21.24;41.18;94163.31;5022966;28;20028;-80
2023/05/20 09:27:15;;;;;;;11.52;5.18;;;;;;;21.15;41.68;94154.72;5022784;28;20088;-79
2023/05/20 09:29:42;;;;;;;19.33;5.75;;;;;;;21.18;41.53;94156.69;5023302;28;20026;-80
2023/05/20 09:32:09;;;;;;;10.40;5.30;;;;;;;21.11;42.02;94164.75;5023108;28;20022;-80
2023/05/20 09:34:39;;;;;;;13.10;6.07;;;;;;;21.08;42.23;94160.06;5022859;28;20041;-80
2023/05/20 09:37:06;;;;;;;11.02;5.38;;;;;;;21.08;42.24;94149.22;5023068;28;20115;-80
2023/05/20 09:39:44;;;;;;;17.33;5.43;;;;;;;21.23;43.01;94157.13;5005461;28;20154;-79
2023/05/20 09:42:25;;;;;;;8.73;5.68;;;;;;;21.39;41.74;94151.47;5022955;28;20379;-78
2023/05/20 09:44:53;;;;;;;13.00;5.70;;;;;;;21.55;42.60;94153.16;5022754;28;20049;-80
2023/05/20 09:47:18;;;;;;;15.85;5.97;;;;;;;21.61;42.79;94157.06;5022619;28;20342;-79
2023/05/20 09:49:46;;;;;;;9.32;5.35;;;;;;;21.70;42.58;94137.78;5022933;28;20030;-79
2023/05/20 09:52:14;;;;;;;10.30;5.65;;;;;;;21.79;41.55;94138.22;5022718;28;20030;-79
2023/05/20 09:54:40;;;;;;;10.80;5.90;;;;;;;21.86;41.93;94140.19;5005165;28;20026;-79
2023/05/20 09:57:06;;;;;;;9.63;5.80;;;;;;;22.01;40.90;94133.69;5023024;28;20100;-79
2023/05/20 09:59:34;;;;;;;23.08;6.18;;;;;;;21.97;40.69;94128.25;5022742;28;20320;-80
2023/05/20 10:01:59;;;;;;;9.10;5.78;;;;;;;22.03;39.81;94132.16;5022594;28;20197;-81
2023/05/20 10:04:26;;;;;;;11.25;5.80;;;;;;;21.96;40.43;94126.72;5022551;28;20033;-79
2023/05/20 10:07:20;;;;;;;12.88;6.15;;;;;;;22.03;41.16;94123.25;5022796;28;20022;-79
2023/05/20 10:09:55;;;;;;;11.30;5.35;;;;;;;22.26;40.48;94112.13;5021419;28;20367;-80
2023/05/20 10:12:43;;;;;;;12.45;5.88;;;;;;;22.15;39.86;94117.50;5022448;28;20180;-79
2023/05/20 10:15:36;;;;;;;10.38;5.82;;;;;;;22.26;40.12;94114.09;5005013;28;20033;-79
2023/05/20 10:18:22;;;;;;;10.15;5.32;;;;;;;22.34;39.86;94115.66;5022807;28;20245;-80
2023/05/20 10:20:49;;;;;;;12.40;4.65;;;;;;;22.42;39.52;94111.81;5022748;28;20029;-80
2023/05/20 10:23:28;;;;;;;8.13;4.47;;;;;;;22.57;38.93;94110.72;5025037;28;20036;-80
2023/05/20 10:25:54;;;;;;;9.32;4.32;;;;;;;22.75;38.85;94097.16;5026681;28;20255;-79
2023/05/20 10:28:32;;;;;;;7.05;4.43;;;;;;;22.80;38.39;94106.91;5026382;28;20021;-79
2023/05/20 10:30:59;;;;;;;9.68;4.65;;;;;;;22.62;38.36;94106.84;5026001;28;20049;-79
2023/05/20 10:33:28;;;;;;;9.30;4.25;;;;;;;22.39;37.78;94088.94;5026304;28;20026;-78
2023/05/20 10:35:58;;;;;;;22.95;5.38;;;;;;;22.36;37.73;94097.06;5026095;28;20112;-79
2023/05/20 10:38:24;;;;;;;14.52;4.30;;;;;;;22.36;37.90;94099.78;5025832;28;20255;-79
2023/05/20 10:40:50;;;;;;;6.35;3.80;;;;;;;22.49;37.13;94084.69;5025972;28;20025;-79
2023/05/20 10:43:25;;;;;;;8.88;4.20;;;;;;;22.54;36.93;94084.31;5025932;28;20021;-79
2023/05/20 10:45:54;;;;;;;9.73;3.78;;;;;;;22.68;37.02;94078.13;5025722;28;20040;-80
2023/05/20 10:48:31;;;;;;;9.40;3.90;;;;;;;22.80;36.77;94080.50;5025836;28;20096;-79
2023/05/20 10:51:13;;;;;;;6.20;4.20;;;;;;;23.03;35.86;94074.72;5026019;28;20309;-78
2023/05/20 10:53:40;;;;;;;7.95;3.38;;;;;;;23.07;36.96;94076.69;5025857;28;20033;-79
2023/05/20 10:56:16;;;;;;;8.85;4.55;;;;;;;23.14;36.18;94073.94;5025802;28;20045;-80
2023/05/20 10:58:43;;;;;;;11.50;4.13;;;;;;;22.94;34.67;94063.44;5025794;28;20018;-79
2023/05/20 11:01:09;;;;;;;8.45;3.83;;;;;;;23.00;35.48;94069.28;5025614;28;20067;-79
2023/05/20 11:03:36;;;;;;;11.27;4.40;;;;;;;23.11;35.23;94061.16;5025687;28;20049;-79
2023/05/20 11:06:09;;;;;;;6.88;4.03;;;;;;;23.01;35.94;94062.66;5007992;28;20026;-79
2023/05/20 11:08:35;;;;;;;7.35;3.58;;;;;;;22.93;35.50;94059.16;5025603;28;20049;-80
2023/05/20 11:11:00;;;;;;;8.20;4.22;;;;;;;22.97;35.48;94062.66;5007996;28;20017;-79
2023/05/20 11:13:26;;;;;;;5.75;3.80;;;;;;;22.93;35.43;94064.59;5025149;28;20018;-79
2023/05/20 11:15:51;;;;;;;7.95;3.85;;;;;;;22.86;36.02;94053.72;5025622;28;20022;-79
2023/05/20 11:18:17;;;;;;;11.55;4.35;;;;;;;22.87;35.25;94049.06;5025380;28;20029;-79
2023/05/20 11:20:43;;;;;;;9.95;4.32;;;;;;;22.93;34.72;94053.72;5025590;28;20017;-83
2023/05/20 11:23:13;;;;;;;10.23;4.60;;;;;;;23.01;34.63;94036.28;5025126;28;20096;-78
2023/05/20 11:25:39;;;;;;;10.60;4.90;;;;;;;23.16;34.70;94039.78;5023591;28;20049;-79